sensor_id;sensor_type;location;lat;lon;timestamp;temperature;humidity
24420;DHT22;12599;52.426;13.330;2022-09-03T00:02:23;14.70;99.90
24420;DHT22;12599;52.426;13.330;2022-09-03T00:05:16;14.70;99.90
24420;DHT22;12599;52.426;13.330;2022-09-03T00:08:02;14.70;99.90
24420;DHT22;12599;52.426;13.330;2022-09-03T00:13:04;14.60;99.90
24420;DHT22;12599;52.426;13.330;2022-09-03T00:15:33;14.60;99.90
24420;DHT22;12599;52.426;13.330;2022-09-03T00:18:09;14.60;99.90
24420;DHT22;12599;52.426;13.330;2022-09-03T00:20:42;14.50;99.90
24420;DHT22;12599;52.426;13.330;2022-09-03T00:23:13;14.50;99.90
24420;DHT22;12599;52.426;13.330;2022-09-03T00:25:51;14.60;99.90
24420;DHT22;12599;52.426;13.330;2022-09-03T00:28:23;14.60;99.90
24420;DHT22;12599;52.426;13.330;2022-09-03T00:30:55;14.60;99.90
24420;DHT22;12599;52.426;13.330;2022-09-03T00:33:27;14.60;99.90
24420;DHT22;12599;52.426;13.330;2022-09-03T00:38:31;14.50;99.90
24420;DHT22;12599;52.426;13.330;2022-09-03T00:41:05;14.50;99.90
24420;DHT22;12599;52.426;13.330;2022-09-03T00:51:41;14.40;99.90
24420;DHT22;12599;52.426;13.330;2022-09-03T01:02:19;14.30;99.90
24420;DHT22;12599;52.426;13.330;2022-09-03T01:13:06;14.20;99.90
24420;DHT22;12599;52.426;13.330;2022-09-03T01:29:31;14.10;99.90
24420;DHT22;12599;52.426;13.330;2022-09-03T01:40:59;14.00;99.90
24420;DHT22;12599;52.426;13.330;2022-09-03T01:46:42;14.00;99.90
24420;DHT22;12599;52.426;13.330;2022-09-03T01:49:23;14.00;99.90
24420;DHT22;12599;52.426;13.330;2022-09-03T01:52:00;14.10;99.90
24420;DHT22;12599;52.426;13.330;2022-09-03T01:55:05;14.00;99.90
24420;DHT22;12599;52.426;13.330;2022-09-03T02:00:15;14.00;99.90
24420;DHT22;12599;52.426;13.330;2022-09-03T02:02:46;14.10;99.90
24420;DHT22;12599;52.426;13.330;2022-09-03T02:05:19;14.10;99.90
24420;DHT22;12599;52.426;13.330;2022-09-03T02:08:03;14.00;99.90
24420;DHT22;12599;52.426;13.330;2022-09-03T02:13:01;14.00;99.90
24420;DHT22;12599;52.426;13.330;2022-09-03T02:15:28;14.00;99.90
24420;DHT22;12599;52.426;13.330;2022-09-03T02:18:01;14.00;99.90
24420;DHT22;12599;52.426;13.330;2022-09-03T02:20:28;14.10;99.90
24420;DHT22;12599;52.426;13.330;2022-09-03T02:22:55;14.00;99.90
24420;DHT22;12599;52.426;13.330;2022-09-03T02:25:25;14.10;99.90
24420;DHT22;12599;52.426;13.330;2022-09-03T02:27:54;14.10;99.90
24420;DHT22;12599;52.426;13.330;2022-09-03T02:30:19;14.00;99.90
24420;DHT22;12599;52.426;13.330;2022-09-03T02:32:46;14.00;99.90
24420;DHT22;12599;52.426;13.330;2022-09-03T02:35:12;13.90;99.90
24420;DHT22;12599;52.426;13.330;2022-09-03T02:37:37;13.90;99.90
24420;DHT22;12599;52.426;13.330;2022-09-03T02:40:03;13.90;99.90
24420;DHT22;12599;52.426;13.330;2022-09-03T02:42:33;13.90;99.90
24420;DHT22;12599;52.426;13.330;2022-09-03T02:45:28;13.90;99.90
24420;DHT22;12599;52.426;13.330;2022-09-03T02:47:55;13.80;99.90
24420;DHT22;12599;52.426;13.330;2022-09-03T02:50:22;13.90;99.90
24420;DHT22;12599;52.426;13.330;2022-09-03T02:52:47;13.90;99.90
24420;DHT22;12599;52.426;13.330;2022-09-03T02:55:13;13.80;99.90
24420;DHT22;12599;52.426;13.330;2022-09-03T02:57:40;13.70;99.90
24420;DHT22;12599;52.426;13.330;2022-09-03T03:00:06;13.70;99.90
24420;DHT22;12599;52.426;13.330;2022-09-03T03:02:32;13.60;99.90
24420;DHT22;12599;52.426;13.330;2022-09-03T03:04:57;13.60;99.90
24420;DHT22;12599;52.426;13.330;2022-09-03T03:07:23;13.60;99.90
24420;DHT22;12599;52.426;13.330;2022-09-03T03:09:50;13.50;99.90
24420;DHT22;12599;52.426;13.330;2022-09-03T03:12:15;13.50;99.90
24420;DHT22;12599;52.426;13.330;2022-09-03T03:14:42;13.40;99.90
24420;DHT22;12599;52.426;13.330;2022-09-03T03:17:08;13.40;99.90
24420;DHT22;12599;52.426;13.330;2022-09-03T03:19:33;13.40;99.90
24420;DHT22;12599;52.426;13.330;2022-09-03T03:21:59;13.30;99.90
24420;DHT22;12599;52.426;13.330;2022-09-03T03:24:25;13.40;99.90
24420;DHT22;12599;52.426;13.330;2022-09-03T03:26:53;13.30;99.90
24420;DHT22;12599;52.426;13.330;2022-09-03T03:29:19;16.30;99.90
24420;DHT22;12599;52.426;13.330;2022-09-03T03:31:45;13.20;99.90
24420;DHT22;12599;52.426;13.330;2022-09-03T03:34:10;13.20;99.90
24420;DHT22;12599;52.426;13.330;2022-09-03T03:36:36;13.20;99.90
24420;DHT22;12599;52.426;13.330;2022-09-03T03:39:02;13.20;99.90
24420;DHT22;12599;52.426;13.330;2022-09-03T03:41:30;13.20;99.90
24420;DHT22;12599;52.426;13.330;2022-09-03T03:43:59;13.10;99.90
24420;DHT22;12599;52.426;13.330;2022-09-03T03:46:30;13.10;99.90
24420;DHT22;12599;52.426;13.330;2022-09-03T03:48:56;13.10;99.90
24420;DHT22;12599;52.426;13.330;2022-09-03T03:51:21;13.10;99.90
24420;DHT22;12599;52.426;13.330;2022-09-03T03:53:47;13.10;99.90
24420;DHT22;12599;52.426;13.330;2022-09-03T03:56:14;13.10;99.90
24420;DHT22;12599;52.426;13.330;2022-09-03T03:58:41;15.00;99.90
24420;DHT22;12599;52.426;13.330;2022-09-03T04:01:22;13.00;99.90
24420;DHT22;12599;52.426;13.330;2022-09-03T04:03:48;13.10;99.90
24420;DHT22;12599;52.426;13.330;2022-09-03T04:06:16;13.00;99.90
24420;DHT22;12599;52.426;13.330;2022-09-03T04:08:44;13.00;99.90
24420;DHT22;12599;52.426;13.330;2022-09-03T04:11:13;13.00;99.90
24420;DHT22;12599;52.426;13.330;2022-09-03T04:13:41;13.00;99.90
24420;DHT22;12599;52.426;13.330;2022-09-03T04:16:21;12.90;99.90
24420;DHT22;12599;52.426;13.330;2022-09-03T04:18:47;12.90;99.90
24420;DHT22;12599;52.426;13.330;2022-09-03T04:21:18;12.90;99.90
24420;DHT22;12599;52.426;13.330;2022-09-03T04:23:46;12.90;99.90
24420;DHT22;12599;52.426;13.330;2022-09-03T04:26:14;12.80;99.90
24420;DHT22;12599;52.426;13.330;2022-09-03T04:28:40;12.80;99.90
24420;DHT22;12599;52.426;13.330;2022-09-03T04:31:08;12.80;99.90
24420;DHT22;12599;52.426;13.330;2022-09-03T04:33:35;12.80;99.90
24420;DHT22;12599;52.426;13.330;2022-09-03T04:36:06;12.90;99.90
24420;DHT22;12599;52.426;13.330;2022-09-03T04:38:34;12.80;99.90
24420;DHT22;12599;52.426;13.330;2022-09-03T04:41:00;12.80;99.90
24420;DHT22;12599;52.426;13.330;2022-09-03T04:43:27;12.90;99.90
24420;DHT22;12599;52.426;13.330;2022-09-03T04:45:57;12.50;99.90
24420;DHT22;12599;52.426;13.330;2022-09-03T04:48:23;13.00;99.90
24420;DHT22;12599;52.426;13.330;2022-09-03T04:50:49;13.00;99.90
24420;DHT22;12599;52.426;13.330;2022-09-03T04:53:15;13.00;99.90
24420;DHT22;12599;52.426;13.330;2022-09-03T04:55:40;13.00;99.90
24420;DHT22;12599;52.426;13.330;2022-09-03T04:58:07;13.00;99.90
24420;DHT22;12599;52.426;13.330;2022-09-03T05:00:32;13.10;99.90
24420;DHT22;12599;52.426;13.330;2022-09-03T05:03:01;13.20;99.90
24420;DHT22;12599;52.426;13.330;2022-09-03T05:05:30;13.20;99.90
24420;DHT22;12599;52.426;13.330;2022-09-03T05:08:02;13.30;99.90
24420;DHT22;12599;52.426;13.330;2022-09-03T05:10:29;13.20;99.90
24420;DHT22;12599;52.426;13.330;2022-09-03T05:13:04;13.30;99.90
24420;DHT22;12599;52.426;13.330;2022-09-03T05:15:31;13.30;99.90
24420;DHT22;12599;52.426;13.330;2022-09-03T05:18:01;13.30;99.90
24420;DHT22;12599;52.426;13.330;2022-09-03T05:20:28;13.40;99.90
24420;DHT22;12599;52.426;13.330;2022-09-03T05:23:00;13.40;99.90
24420;DHT22;12599;52.426;13.330;2022-09-03T05:25:26;13.40;99.90
24420;DHT22;12599;52.426;13.330;2022-09-03T05:27:51;14.90;99.90
24420;DHT22;12599;52.426;13.330;2022-09-03T05:30:19;13.50;99.90
24420;DHT22;12599;52.426;13.330;2022-09-03T05:32:47;13.50;99.90
24420;DHT22;12599;52.426;13.330;2022-09-03T05:35:13;13.50;99.90
24420;DHT22;12599;52.426;13.330;2022-09-03T05:37:38;13.60;99.90
24420;DHT22;12599;52.426;13.330;2022-09-03T05:40:04;13.60;99.90
24420;DHT22;12599;52.426;13.330;2022-09-03T05:42:30;13.70;99.90
24420;DHT22;12599;52.426;13.330;2022-09-03T05:44:56;13.70;99.90
24420;DHT22;12599;52.426;13.330;2022-09-03T05:47:22;13.80;99.90
24420;DHT22;12599;52.426;13.330;2022-09-03T05:49:48;13.90;99.90
24420;DHT22;12599;52.426;13.330;2022-09-03T05:52:14;13.90;99.90
24420;DHT22;12599;52.426;13.330;2022-09-03T05:54:40;14.00;99.90
24420;DHT22;12599;52.426;13.330;2022-09-03T05:57:06;14.00;99.90
24420;DHT22;12599;52.426;13.330;2022-09-03T05:59:31;14.10;99.90
24420;DHT22;12599;52.426;13.330;2022-09-03T06:01:57;14.20;99.90
24420;DHT22;12599;52.426;13.330;2022-09-03T06:04:22;14.30;99.90
24420;DHT22;12599;52.426;13.330;2022-09-03T06:06:48;17.60;99.90
24420;DHT22;12599;52.426;13.330;2022-09-03T06:09:19;14.40;99.90
24420;DHT22;12599;52.426;13.330;2022-09-03T06:11:46;14.50;99.90
24420;DHT22;12599;52.426;13.330;2022-09-03T06:14:14;14.60;99.90
24420;DHT22;12599;52.426;13.330;2022-09-03T06:16:41;14.60;99.90
24420;DHT22;12599;52.426;13.330;2022-09-03T06:19:08;14.50;99.90
24420;DHT22;12599;52.426;13.330;2022-09-03T06:21:39;14.60;99.90
24420;DHT22;12599;52.426;13.330;2022-09-03T06:24:11;14.60;99.90
24420;DHT22;12599;52.426;13.330;2022-09-03T06:26:38;14.60;99.90
24420;DHT22;12599;52.426;13.330;2022-09-03T06:29:03;14.60;99.90
24420;DHT22;12599;52.426;13.330;2022-09-03T06:31:29;14.60;99.90
24420;DHT22;12599;52.426;13.330;2022-09-03T06:33:55;14.60;99.90
24420;DHT22;12599;52.426;13.330;2022-09-03T06:36:22;14.70;99.90
24420;DHT22;12599;52.426;13.330;2022-09-03T06:38:53;14.80;99.90
24420;DHT22;12599;52.426;13.330;2022-09-03T06:41:22;14.90;99.90
24420;DHT22;12599;52.426;13.330;2022-09-03T06:43:57;14.90;99.90
24420;DHT22;12599;52.426;13.330;2022-09-03T06:46:31;15.00;99.90
24420;DHT22;12599;52.426;13.330;2022-09-03T06:48:56;14.90;99.90
24420;DHT22;12599;52.426;13.330;2022-09-03T06:51:24;14.90;99.90
24420;DHT22;12599;52.426;13.330;2022-09-03T06:53:53;17.00;99.90
24420;DHT22;12599;52.426;13.330;2022-09-03T06:56:21;14.80;99.90
24420;DHT22;12599;52.426;13.330;2022-09-03T06:58:55;14.90;99.90
24420;DHT22;12599;52.426;13.330;2022-09-03T07:01:25;15.00;99.90
24420;DHT22;12599;52.426;13.330;2022-09-03T07:03:54;15.00;99.90
24420;DHT22;12599;52.426;13.330;2022-09-03T07:06:21;15.10;99.90
24420;DHT22;12599;52.426;13.330;2022-09-03T07:08:46;15.20;99.90
24420;DHT22;12599;52.426;13.330;2022-09-03T07:11:16;15.20;99.90
24420;DHT22;12599;52.426;13.330;2022-09-03T07:13:45;15.50;99.90
24420;DHT22;12599;52.426;13.330;2022-09-03T07:16:16;15.50;99.90
24420;DHT22;12599;52.426;13.330;2022-09-03T07:18:43;15.50;99.90
24420;DHT22;12599;52.426;13.330;2022-09-03T07:21:11;15.40;99.90
24420;DHT22;12599;52.426;13.330;2022-09-03T07:23:37;15.40;99.90
24420;DHT22;12599;52.426;13.330;2022-09-03T07:26:06;15.60;99.90
24420;DHT22;12599;52.426;13.330;2022-09-03T07:28:35;15.50;99.90
24420;DHT22;12599;52.426;13.330;2022-09-03T07:31:06;15.60;99.90
24420;DHT22;12599;52.426;13.330;2022-09-03T07:33:32;15.60;99.90
24420;DHT22;12599;52.426;13.330;2022-09-03T07:36:07;15.70;99.90
24420;DHT22;12599;52.426;13.330;2022-09-03T07:38:33;15.90;99.90
24420;DHT22;12599;52.426;13.330;2022-09-03T07:41:02;16.00;99.90
24420;DHT22;12599;52.426;13.330;2022-09-03T07:43:32;16.00;99.90
24420;DHT22;12599;52.426;13.330;2022-09-03T07:45:58;16.10;99.90
24420;DHT22;12599;52.426;13.330;2022-09-03T07:48:25;16.20;99.90
24420;DHT22;12599;52.426;13.330;2022-09-03T07:50:51;16.30;99.90
24420;DHT22;12599;52.426;13.330;2022-09-03T07:53:17;16.20;99.90
24420;DHT22;12599;52.426;13.330;2022-09-03T07:55:45;16.10;99.90
24420;DHT22;12599;52.426;13.330;2022-09-03T07:58:11;16.20;99.90
24420;DHT22;12599;52.426;13.330;2022-09-03T08:00:38;16.40;99.90
24420;DHT22;12599;52.426;13.330;2022-09-03T08:03:04;16.40;99.90
24420;DHT22;12599;52.426;13.330;2022-09-03T08:05:34;16.60;99.90
24420;DHT22;12599;52.426;13.330;2022-09-03T08:08:04;16.70;99.90
24420;DHT22;12599;52.426;13.330;2022-09-03T08:10:34;16.70;99.90
24420;DHT22;12599;52.426;13.330;2022-09-03T08:13:00;16.90;99.90
24420;DHT22;12599;52.426;13.330;2022-09-03T08:15:30;17.10;99.90
24420;DHT22;12599;52.426;13.330;2022-09-03T08:17:56;17.20;99.90
24420;DHT22;12599;52.426;13.330;2022-09-03T08:20:22;17.50;99.90
24420;DHT22;12599;52.426;13.330;2022-09-03T08:22:47;17.60;99.90
24420;DHT22;12599;52.426;13.330;2022-09-03T08:25:13;17.80;99.90
24420;DHT22;12599;52.426;13.330;2022-09-03T08:27:39;17.90;99.90
24420;DHT22;12599;52.426;13.330;2022-09-03T08:30:05;18.20;99.90
24420;DHT22;12599;52.426;13.330;2022-09-03T08:32:37;18.20;99.90
24420;DHT22;12599;52.426;13.330;2022-09-03T08:35:04;18.40;99.90
24420;DHT22;12599;52.426;13.330;2022-09-03T08:37:30;18.60;99.90
24420;DHT22;12599;52.426;13.330;2022-09-03T08:39:56;18.60;99.90
24420;DHT22;12599;52.426;13.330;2022-09-03T08:45:14;18.70;99.90
24420;DHT22;12599;52.426;13.330;2022-09-03T08:47:47;18.60;99.90
24420;DHT22;12599;52.426;13.330;2022-09-03T08:50:24;18.70;99.90
24420;DHT22;12599;52.426;13.330;2022-09-03T08:53:08;18.90;99.90
24420;DHT22;12599;52.426;13.330;2022-09-03T08:55:50;19.00;99.90
24420;DHT22;12599;52.426;13.330;2022-09-03T08:58:17;19.20;99.90
24420;DHT22;12599;52.426;13.330;2022-09-03T09:06:18;19.40;99.90
24420;DHT22;12599;52.426;13.330;2022-09-03T09:23:12;19.80;99.90
24420;DHT22;12599;52.426;13.330;2022-09-03T09:25:46;19.70;99.90
24420;DHT22;12599;52.426;13.330;2022-09-03T09:28:23;19.70;99.90
24420;DHT22;12599;52.426;13.330;2022-09-03T09:30:53;19.60;99.90
24420;DHT22;12599;52.426;13.330;2022-09-03T09:33:19;19.80;99.90
24420;DHT22;12599;52.426;13.330;2022-09-03T09:35:46;20.10;99.90
24420;DHT22;12599;52.426;13.330;2022-09-03T09:38:13;20.20;99.90
24420;DHT22;12599;52.426;13.330;2022-09-03T09:40:41;20.30;99.90
24420;DHT22;12599;52.426;13.330;2022-09-03T09:45:33;20.60;99.90
24420;DHT22;12599;52.426;13.330;2022-09-03T09:48:00;20.80;99.90
24420;DHT22;12599;52.426;13.330;2022-09-03T09:50:26;20.90;99.90
24420;DHT22;12599;52.426;13.330;2022-09-03T09:53:03;21.10;99.90
24420;DHT22;12599;52.426;13.330;2022-09-03T09:55:32;21.20;99.80
24420;DHT22;12599;52.426;13.330;2022-09-03T09:58:09;21.30;99.10
24420;DHT22;12599;52.426;13.330;2022-09-03T10:00:35;21.40;99.40
24420;DHT22;12599;52.426;13.330;2022-09-03T10:03:09;21.60;99.90
24420;DHT22;12599;52.426;13.330;2022-09-03T10:05:36;21.60;99.10
24420;DHT22;12599;52.426;13.330;2022-09-03T10:08:18;21.50;98.80
24420;DHT22;12599;52.426;13.330;2022-09-03T10:10:46;21.30;99.00
24420;DHT22;12599;52.426;13.330;2022-09-03T10:20:03;21.00;98.90
24420;DHT22;12599;52.426;13.330;2022-09-03T10:22:12;20.70;99.30
24420;DHT22;12599;52.426;13.330;2022-09-03T10:27:15;20.70;99.90
24420;DHT22;12599;52.426;13.330;2022-09-03T10:29:41;21.00;99.40
24420;DHT22;12599;52.426;13.330;2022-09-03T10:35:12;21.10;99.20
24420;DHT22;12599;52.426;13.330;2022-09-03T10:41:19;21.00;99.60
24420;DHT22;12599;52.426;13.330;2022-09-03T10:44:03;20.90;99.10
24420;DHT22;12599;52.426;13.330;2022-09-03T10:49:21;20.80;99.50
24420;DHT22;12599;52.426;13.330;2022-09-03T11:02:43;21.10;97.80
24420;DHT22;12599;52.426;13.330;2022-09-03T11:05:16;21.20;98.00
24420;DHT22;12599;52.426;13.330;2022-09-03T11:10:25;21.70;95.70
24420;DHT22;12599;52.426;13.330;2022-09-03T11:13:14;22.00;95.30
24420;DHT22;12599;52.426;13.330;2022-09-03T11:15:52;22.30;95.80
24420;DHT22;12599;52.426;13.330;2022-09-03T11:18:32;22.40;95.80
24420;DHT22;12599;52.426;13.330;2022-09-03T11:21:04;22.30;95.90
24420;DHT22;12599;52.426;13.330;2022-09-03T11:23:34;22.30;95.70
24420;DHT22;12599;52.426;13.330;2022-09-03T11:26:06;22.40;95.20
24420;DHT22;12599;52.426;13.330;2022-09-03T11:31:22;22.40;95.10
24420;DHT22;12599;52.426;13.330;2022-09-03T11:34:04;22.30;95.90
24420;DHT22;12599;52.426;13.330;2022-09-03T11:36:33;22.40;96.00
24420;DHT22;12599;52.426;13.330;2022-09-03T11:39:00;22.20;96.40
24420;DHT22;12599;52.426;13.330;2022-09-03T11:41:27;22.00;95.20
24420;DHT22;12599;52.426;13.330;2022-09-03T11:43:56;21.80;94.90
24420;DHT22;12599;52.426;13.330;2022-09-03T11:48:48;21.60;95.20
24420;DHT22;12599;52.426;13.330;2022-09-03T11:51:33;21.60;95.00
24420;DHT22;12599;52.426;13.330;2022-09-03T11:56:49;21.50;95.10
24420;DHT22;12599;52.426;13.330;2022-09-03T12:01:52;21.50;95.10
24420;DHT22;12599;52.426;13.330;2022-09-03T12:04:28;21.60;95.30
24420;DHT22;12599;52.426;13.330;2022-09-03T12:07:16;21.70;95.10
24420;DHT22;12599;52.426;13.330;2022-09-03T12:18:24;21.30;95.70
24420;DHT22;12599;52.426;13.330;2022-09-03T12:25:55;22.00;95.00
24420;DHT22;12599;52.426;13.330;2022-09-03T12:28:23;22.20;94.30
24420;DHT22;12599;52.426;13.330;2022-09-03T12:30:50;22.20;94.10
24420;DHT22;12599;52.426;13.330;2022-09-03T12:33:19;22.10;94.00
24420;DHT22;12599;52.426;13.330;2022-09-03T12:35:57;22.20;94.10
24420;DHT22;12599;52.426;13.330;2022-09-03T12:38:24;22.00;94.30
24420;DHT22;12599;52.426;13.330;2022-09-03T12:40:50;21.80;94.60
24420;DHT22;12599;52.426;13.330;2022-09-03T12:43:17;21.80;94.70
24420;DHT22;12599;52.426;13.330;2022-09-03T12:45:45;21.90;94.90
24420;DHT22;12599;52.426;13.330;2022-09-03T12:48:15;22.00;94.70
24420;DHT22;12599;52.426;13.330;2022-09-03T12:50:41;22.20;94.90
24420;DHT22;12599;52.426;13.330;2022-09-03T12:53:09;22.30;93.60
24420;DHT22;12599;52.426;13.330;2022-09-03T13:05:57;22.10;94.00
24420;DHT22;12599;52.426;13.330;2022-09-03T13:08:30;22.40;94.30
24420;DHT22;12599;52.426;13.330;2022-09-03T13:10:58;22.40;93.50
24420;DHT22;12599;52.426;13.330;2022-09-03T13:13:27;22.50;93.80
24420;DHT22;12599;52.426;13.330;2022-09-03T13:30:10;22.40;94.00
24420;DHT22;12599;52.426;13.330;2022-09-03T13:38:30;22.20;94.00
24420;DHT22;12599;52.426;13.330;2022-09-03T13:43:53;22.10;93.90
24420;DHT22;12599;52.426;13.330;2022-09-03T13:46:38;22.10;94.10
24420;DHT22;12599;52.426;13.330;2022-09-03T13:52:15;21.80;94.00
24420;DHT22;12599;52.426;13.330;2022-09-03T13:54:54;21.80;93.90
24420;DHT22;12599;52.426;13.330;2022-09-03T13:57:53;21.80;94.00
24420;DHT22;12599;52.426;13.330;2022-09-03T14:00:48;21.90;94.00
24420;DHT22;12599;52.426;13.330;2022-09-03T14:06:37;21.80;94.00
24420;DHT22;12599;52.426;13.330;2022-09-03T14:09:29;21.70;94.00
24420;DHT22;12599;52.426;13.330;2022-09-03T14:12:24;21.80;94.00
24420;DHT22;12599;52.426;13.330;2022-09-03T14:15:05;22.10;94.00
24420;DHT22;12599;52.426;13.330;2022-09-03T14:17:45;22.50;94.20
24420;DHT22;12599;52.426;13.330;2022-09-03T14:20:28;22.80;93.60
24420;DHT22;12599;52.426;13.330;2022-09-03T14:25:54;22.60;93.10
24420;DHT22;12599;52.426;13.330;2022-09-03T14:28:43;25.40;94.00
24420;DHT22;12599;52.426;13.330;2022-09-03T14:31:25;22.10;93.60
24420;DHT22;12599;52.426;13.330;2022-09-03T14:58:03;23.30;93.10
24420;DHT22;12599;52.426;13.330;2022-09-03T15:00:56;23.70;92.50
24420;DHT22;12599;52.426;13.330;2022-09-03T15:11:31;24.60;91.40
24420;DHT22;12599;52.426;13.330;2022-09-03T15:14:17;24.60;91.20
24420;DHT22;12599;52.426;13.330;2022-09-03T15:30:16;23.20;91.80
24420;DHT22;12599;52.426;13.330;2022-09-03T15:32:57;23.00;92.10
24420;DHT22;12599;52.426;13.330;2022-09-03T15:38:32;22.20;92.10
24420;DHT22;12599;52.426;13.330;2022-09-03T15:40:53;22.60;92.80
24420;DHT22;12599;52.426;13.330;2022-09-03T15:43:28;22.60;93.40
24420;DHT22;12599;52.426;13.330;2022-09-03T15:46:03;22.70;93.10
24420;DHT22;12599;52.426;13.330;2022-09-03T15:51:29;22.50;92.10
24420;DHT22;12599;52.426;13.330;2022-09-03T15:54:20;22.50;92.60
24420;DHT22;12599;52.426;13.330;2022-09-03T15:57:02;22.50;92.90
24420;DHT22;12599;52.426;13.330;2022-09-03T16:15:59;22.40;93.10
24420;DHT22;12599;52.426;13.330;2022-09-03T16:18:34;22.40;93.00
24420;DHT22;12599;52.426;13.330;2022-09-03T16:21:27;22.40;93.30
24420;DHT22;12599;52.426;13.330;2022-09-03T16:23:58;22.20;93.80
24420;DHT22;12599;52.426;13.330;2022-09-03T16:26:41;22.10;93.70
24420;DHT22;12599;52.426;13.330;2022-09-03T16:29:16;22.00;94.30
24420;DHT22;12599;52.426;13.330;2022-09-03T16:48:39;21.50;94.90
24420;DHT22;12599;52.426;13.330;2022-09-03T16:51:35;21.50;94.60
24420;DHT22;12599;52.426;13.330;2022-09-03T16:54:15;21.50;94.40
24420;DHT22;12599;52.426;13.330;2022-09-03T16:57:06;21.40;94.60
24420;DHT22;12599;52.426;13.330;2022-09-03T17:19:03;20.90;95.50
24420;DHT22;12599;52.426;13.330;2022-09-03T17:24:36;20.70;96.00
24420;DHT22;12599;52.426;13.330;2022-09-03T17:27:25;20.60;95.90
24420;DHT22;12599;52.426;13.330;2022-09-03T17:35:56;20.40;96.30
24420;DHT22;12599;52.426;13.330;2022-09-03T17:41:33;20.30;96.40
24420;DHT22;12599;52.426;13.330;2022-09-03T17:46:51;20.20;96.70
24420;DHT22;12599;52.426;13.330;2022-09-03T17:49:28;20.20;96.90
24420;DHT22;12599;52.426;13.330;2022-09-03T17:52:14;20.10;97.00
24420;DHT22;12599;52.426;13.330;2022-09-03T17:54:48;20.00;97.00
24420;DHT22;12599;52.426;13.330;2022-09-03T18:00:10;20.00;97.00
24420;DHT22;12599;52.426;13.330;2022-09-03T18:02:50;20.00;97.00
24420;DHT22;12599;52.426;13.330;2022-09-03T18:05:29;20.00;97.10
24420;DHT22;12599;52.426;13.330;2022-09-03T18:13:23;19.90;97.20
24420;DHT22;12599;52.426;13.330;2022-09-03T18:16:05;19.90;97.30
24420;DHT22;12599;52.426;13.330;2022-09-03T18:18:37;19.90;97.20
24420;DHT22;12599;52.426;13.330;2022-09-03T18:21:11;19.80;97.70
24420;DHT22;12599;52.426;13.330;2022-09-03T18:26:57;19.80;97.50
24420;DHT22;12599;52.426;13.330;2022-09-03T18:29:49;19.80;97.50
24420;DHT22;12599;52.426;13.330;2022-09-03T18:32:36;19.80;97.60
24420;DHT22;12599;52.426;13.330;2022-09-03T18:35:21;19.80;97.60
24420;DHT22;12599;52.426;13.330;2022-09-03T18:38:07;19.70;97.80
24420;DHT22;12599;52.426;13.330;2022-09-03T18:40:53;19.70;97.80
24420;DHT22;12599;52.426;13.330;2022-09-03T18:56:08;19.50;97.90
24420;DHT22;12599;52.426;13.330;2022-09-03T19:02:03;19.40;98.20
24420;DHT22;12599;52.426;13.330;2022-09-03T19:05:18;19.40;98.10
24420;DHT22;12599;52.426;13.330;2022-09-03T19:08:20;19.40;98.30
24420;DHT22;12599;52.426;13.330;2022-09-03T19:11:29;19.40;98.10
24420;DHT22;12599;52.426;13.330;2022-09-03T19:14:31;19.40;98.30
24420;DHT22;12599;52.426;13.330;2022-09-03T19:20:28;19.40;98.00
24420;DHT22;12599;52.426;13.330;2022-09-03T19:23:13;19.30;97.90
24420;DHT22;12599;52.426;13.330;2022-09-03T19:26:09;19.20;98.20
24420;DHT22;12599;52.426;13.330;2022-09-03T19:29:02;19.20;98.10
24420;DHT22;12599;52.426;13.330;2022-09-03T19:32:06;19.20;98.00
24420;DHT22;12599;52.426;13.330;2022-09-03T19:35:16;19.20;98.00
24420;DHT22;12599;52.426;13.330;2022-09-03T19:38:19;19.20;97.80
24420;DHT22;12599;52.426;13.330;2022-09-03T19:41:31;19.20;97.70
24420;DHT22;12599;52.426;13.330;2022-09-03T19:44:51;19.20;97.80
24420;DHT22;12599;52.426;13.330;2022-09-03T19:50:36;19.20;97.80
24420;DHT22;12599;52.426;13.330;2022-09-03T19:53:24;19.20;97.70
24420;DHT22;12599;52.426;13.330;2022-09-03T19:56:13;19.20;97.70
24420;DHT22;12599;52.426;13.330;2022-09-03T19:59:10;19.20;97.60
24420;DHT22;12599;52.426;13.330;2022-09-03T20:01:55;19.20;97.70
24420;DHT22;12599;52.426;13.330;2022-09-03T20:04:47;19.20;97.70
24420;DHT22;12599;52.426;13.330;2022-09-03T20:07:34;19.20;97.70
24420;DHT22;12599;52.426;13.330;2022-09-03T20:10:20;19.20;97.50
24420;DHT22;12599;52.426;13.330;2022-09-03T20:15:30;19.20;97.90
24420;DHT22;12599;52.426;13.330;2022-09-03T20:18:08;19.20;97.60
24420;DHT22;12599;52.426;13.330;2022-09-03T20:21:19;19.20;97.60
24420;DHT22;12599;52.426;13.330;2022-09-03T20:24:19;19.20;97.80
24420;DHT22;12599;52.426;13.330;2022-09-03T20:30:03;19.20;97.60
24420;DHT22;12599;52.426;13.330;2022-09-03T20:33:46;19.20;97.80
24420;DHT22;12599;52.426;13.330;2022-09-03T20:44:30;19.10;97.80
24420;DHT22;12599;52.426;13.330;2022-09-03T21:00:15;18.90;98.20
24420;DHT22;12599;52.426;13.330;2022-09-03T21:03:36;19.00;98.30
24420;DHT22;12599;52.426;13.330;2022-09-03T21:20:31;18.70;98.70
24420;DHT22;12599;52.426;13.330;2022-09-03T21:23:20;18.60;98.60
24420;DHT22;12599;52.426;13.330;2022-09-03T21:28:27;18.60;98.90
24420;DHT22;12599;52.426;13.330;2022-09-03T21:30:59;18.50;98.90
24420;DHT22;12599;52.426;13.330;2022-09-03T21:33:28;18.50;98.90
24420;DHT22;12599;52.426;13.330;2022-09-03T21:36:06;18.50;99.10
24420;DHT22;12599;52.426;13.330;2022-09-03T21:38:36;18.40;99.00
24420;DHT22;12599;52.426;13.330;2022-09-03T21:44:07;18.30;99.10
24420;DHT22;12599;52.426;13.330;2022-09-03T21:47:01;18.40;99.00
24420;DHT22;12599;52.426;13.330;2022-09-03T21:49:34;18.40;99.10
24420;DHT22;12599;52.426;13.330;2022-09-03T21:52:05;18.30;99.00
24420;DHT22;12599;52.426;13.330;2022-09-03T21:54:32;18.30;98.90
24420;DHT22;12599;52.426;13.330;2022-09-03T21:57:10;18.30;98.90
24420;DHT22;12599;52.426;13.330;2022-09-03T22:02:22;18.30;98.90
24420;DHT22;12599;52.426;13.330;2022-09-03T22:04:49;18.20;99.20
24420;DHT22;12599;52.426;13.330;2022-09-03T22:12:35;18.20;99.10
24420;DHT22;12599;52.426;13.330;2022-09-03T22:15:05;18.10;99.10
24420;DHT22;12599;52.426;13.330;2022-09-03T22:17:36;18.10;99.20
24420;DHT22;12599;52.426;13.330;2022-09-03T22:20:12;18.00;99.20
24420;DHT22;12599;52.426;13.330;2022-09-03T22:23:13;18.10;99.20
24420;DHT22;12599;52.426;13.330;2022-09-03T22:25:57;18.00;99.20
24420;DHT22;12599;52.426;13.330;2022-09-03T22:28:27;17.90;99.30